Time;durP1;ratioP1;P1;durP2;ratioP2;P2;SDS_P1;SDS_P2;PMS_P1;PMS_P2;Temp;Humidity;BMP_temperature;BMP_pressure;BME280_temperature;BME280_humidity;BME280_pressure;Samples;Min_cycle;Max_cycle;Signal;HPM_P1;HPM_P2
2021/06/28 04:28:24;;;;;;;8.05;3.78;;;;;;;30.13;38.77;100353.94;5333905;26;20087;-85
2021/06/28 04:31:11;;;;;;;3.95;3.15;;;;;;;30.66;38.05;100361.84;5356574;26;20032;-85
2021/06/28 04:33:58;;;;;;;5.87;3.85;;;;;;;31.39;36.67;100360.53;5338573;26;20044;-84
2021/06/28 04:36:25;;;;;;;7.53;4.00;;;;;;;31.86;35.68;100363.31;5335796;26;20081;-86
2021/06/28 04:38:53;;;;;;;5.12;3.78;;;;;;;31.92;34.96;100355.59;5354353;26;20193;-85
2021/06/28 04:41:20;;;;;;;6.55;4.65;;;;;;;31.92;35.11;100352.91;5353840;26;20072;-86
2021/06/28 05:28:51;;;;;;;6.50;3.30;;;;;;;30.75;39.92;100358.28;5351387;26;20083;-84
2021/06/28 11:10:39;;;;;;;3.33;2.75;;;;;;;41.36;20.28;100323.03;5340710;26;20064;-83
2021/06/28 11:13:51;;;;;;;6.28;3.03;;;;;;;41.56;19.15;100325.84;5340431;26;20497;-84
2021/06/28 11:16:29;;;;;;;11.38;2.80;;;;;;;41.30;19.84;100311.00;5321956;26;20402;-83
2021/06/28 11:18:56;;;;;;;3.35;2.40;;;;;;;41.46;18.58;100315.22;5341824;26;20051;-83
2021/06/28 11:21:38;;;;;;;3.37;2.67;;;;;;;40.24;19.35;100305.19;5341675;26;20059;-83
2021/06/28 11:24:05;;;;;;;3.90;2.78;;;;;;;40.64;18.79;100303.44;5321466;26;20119;-82
2021/06/28 11:26:37;;;;;;;5.78;2.62;;;;;;;39.85;19.60;100306.66;5322459;26;20079;-83
2021/06/28 11:29:04;;;;;;;2.62;2.22;;;;;;;40.56;18.68;100306.34;5340647;26;20049;-84
2021/06/28 12:09:23;;;;;;;2.50;2.20;;;;;;;43.26;17.23;100265.62;5338904;26;20790;-84
2021/06/28 12:12:14;;;;;;;2.37;2.17;;;;;;;43.81;16.06;100265.72;5325741;26;20122;-85
2021/06/28 12:14:49;;;;;;;4.80;2.78;;;;;;;43.15;17.34;100263.59;5342425;26;20076;-86
2021/06/28 12:17:21;;;;;;;4.32;2.45;;;;;;;43.12;17.49;100270.38;5323199;26;20371;-85
2021/06/28 12:19:56;;;;;;;8.05;2.87;;;;;;;42.97;15.69;100259.66;5342613;26;20056;-86
2021/06/28 12:22:25;;;;;;;3.78;2.87;;;;;;;42.48;17.28;100260.41;5320502;26;20067;-84
2021/06/28 12:24:57;;;;;;;4.47;3.25;;;;;;;42.78;17.09;100258.75;5321571;26;20052;-83
2021/06/28 12:27:30;;;;;;;8.60;3.50;;;;;;;41.96;17.53;100255.75;5321247;26;20098;-86
2021/06/28 12:29:59;;;;;;;5.12;2.92;;;;;;;42.23;16.79;100252.88;5321466;26;20067;-85
2021/06/28 12:53:36;;;;;;;4.87;2.60;;;;;;;42.11;17.31;100241.66;5344015;26;20091;-86
2021/06/28 12:56:14;;;;;;;9.63;2.60;;;;;;;41.89;18.08;100234.78;5342201;26;20113;-84
2021/06/28 12:59:03;;;;;;;5.37;2.80;;;;;;;41.86;18.61;100235.16;5325501;26;20068;-84
2021/06/28 13:01:34;;;;;;;3.37;2.45;;;;;;;42.01;17.09;100226.63;5322359;26;20414;-85
2021/06/28 13:04:20;;;;;;;3.80;2.72;;;;;;;42.39;18.76;100232.22;5324007;26;20057;-84
2021/06/28 13:06:49;;;;;;;5.05;3.00;;;;;;;42.69;17.16;100229.69;5322690;26;20106;-85
2021/06/28 13:09:28;;;;;;;8.25;2.80;;;;;;;43.16;16.60;100229.38;5324108;26;20702;-84
2021/06/28 13:12:25;;;;;;;3.08;2.30;;;;;;;43.16;16.38;100227.44;5342265;26;20102;-85
2021/06/28 13:15:28;;;;;;;3.00;2.60;;;;;;;42.55;16.96;100231.69;5342223;26;20063;-84
2021/06/28 13:18:01;;;;;;;4.87;2.75;;;;;;;41.57;17.49;100239.31;5342384;26;20411;-84
2021/06/28 13:20:30;;;;;;;4.20;2.37;;;;;;;41.18;18.06;100239.12;5322800;26;20460;-84
2021/06/28 13:23:23;;;;;;;6.90;3.20;;;;;;;41.30;18.48;100229.12;5341066;26;20098;-84
2021/06/28 13:25:51;;;;;;;3.20;2.53;;;;;;;41.64;19.48;100221.66;5341908;26;20048;-85
2021/06/28 13:28:22;;;;;;;4.18;2.67;;;;;;;42.30;19.16;100216.94;5342152;26;20064;-85
2021/06/28 13:30:59;;;;;;;3.42;2.40;;;;;;;42.83;17.58;100216.63;5341713;26;20453;-85
2021/06/28 13:33:26;;;;;;;5.50;3.63;;;;;;;43.15;16.82;100209.13;5340131;26;20052;-85
2021/06/28 13:35:53;;;;;;;4.57;2.50;;;;;;;42.54;17.27;100218.94;5339953;26;20080;-84
2021/06/28 13:38:20;;;;;;;5.75;2.53;;;;;;;42.72;16.82;100207.16;5339995;26;20029;-84
2021/06/28 13:40:58;;;;;;;3.15;2.62;;;;;;;41.33;19.22;100213.22;5338764;26;20082;-85
2021/06/28 13:43:25;;;;;;;4.28;3.00;;;;;;;41.49;17.70;100208.12;5322012;26;20060;-85
2021/06/28 13:45:53;;;;;;;5.90;2.75;;;;;;;41.44;17.20;100207.03;5340896;26;20103;-86
2021/06/28 13:48:25;;;;;;;3.75;2.90;;;;;;;40.57;18.50;100206.19;5343005;26;20060;-86
2021/06/28 13:50:52;;;;;;;7.03;3.00;;;;;;;39.97;19.74;100201.31;5342332;26;20066;-86
2021/06/28 13:53:22;;;;;;;5.62;2.78;;;;;;;40.75;19.90;100205.59;5324198;26;20048;-86
2021/06/28 13:55:54;;;;;;;3.37;2.28;;;;;;;41.03;19.66;100199.87;5344011;26;20135;-85
2021/06/28 13:58:26;;;;;;;4.55;2.75;;;;;;;40.84;18.48;100199.66;5323226;26;20102;-85
2021/06/28 14:00:56;;;;;;;5.28;2.33;;;;;;;41.28;19.18;100191.81;5344364;26;20116;-86
2021/06/28 14:03:24;;;;;;;4.12;2.80;;;;;;;40.77;19.58;100196.06;5326341;26;20788;-85
2021/06/28 14:05:51;;;;;;;3.20;2.50;;;;;;;41.04;18.89;100194.19;5326210;26;20048;-85
2021/06/28 14:08:20;;;;;;;5.93;2.92;;;;;;;41.63;17.84;100181.38;5345505;26;20044;-85
2021/06/28 14:10:52;;;;;;;3.25;2.47;;;;;;;42.01;17.69;100179.72;5345346;26;20118;-84
2021/06/28 14:13:20;;;;;;;3.55;3.00;;;;;;;42.30;18.25;100189.31;5323774;26;20775;-86
2021/06/28 14:15:51;;;;;;;4.68;2.75;;;;;;;42.48;17.92;100183.94;5343302;26;20112;-85
2021/06/28 14:18:18;;;;;;;4.10;2.95;;;;;;;42.79;17.05;100185.84;5343921;26;20064;-87
2021/06/28 14:20:45;;;;;;;2.78;2.35;;;;;;;42.39;16.71;100177.00;5346725;26;20028;-86
2021/06/28 14:23:12;;;;;;;2.78;2.58;;;;;;;42.82;16.20;100173.50;5345269;26;20097;-87
2021/06/28 14:25:39;;;;;;;5.00;3.10;;;;;;;42.90;17.10;100172.37;5344622;26;20032;-83
2021/06/28 14:28:07;;;;;;;5.15;2.92;;;;;;;42.34;16.94;100171.31;5346932;26;20068;-84
2021/06/28 14:30:33;;;;;;;3.15;2.50;;;;;;;42.46;16.90;100168.66;5323358;26;20123;-83
2021/06/28 14:33:02;;;;;;;2.87;2.67;;;;;;;42.64;17.39;100160.44;5322079;26;20052;-87
2021/06/28 14:35:34;;;;;;;2.87;2.67;;;;;;;42.84;17.55;100163.06;5324641;26;20492;-86
2021/06/28 14:38:02;;;;;;;3.78;2.70;;;;;;;42.96;17.39;100163.19;5325497;26;20052;-86
2021/06/28 14:40:30;;;;;;;2.92;2.72;;;;;;;42.92;15.95;100160.03;5344390;26;20528;-85
2021/06/28 14:42:57;;;;;;;4.87;3.75;;;;;;;42.64;17.10;100164.03;5343696;26;20052;-86
2021/06/28 14:45:25;;;;;;;3.72;3.42;;;;;;;42.67;17.87;100167.44;5344646;26;20074;-86
2021/06/28 14:47:52;;;;;;;5.83;2.93;;;;;;;42.80;17.78;100168.22;5344893;26;20116;-87
2021/06/28 14:50:20;;;;;;;3.47;2.75;;;;;;;42.82;16.89;100163.28;5346519;26;20068;-87
2021/06/28 14:52:47;;;;;;;3.70;2.37;;;;;;;42.76;16.68;100160.59;5344714;26;20048;-86
2021/06/28 14:55:15;;;;;;;3.58;2.45;;;;;;;42.99;15.48;100158.03;5342720;26;20898;-85
2021/06/28 14:58:04;;;;;;;5.25;2.83;;;;;;;43.06;16.07;100161.56;5342531;26;20072;-86
2021/06/28 15:00:38;;;;;;;3.60;2.62;;;;;;;42.10;17.34;100154.44;5326377;26;20116;-88
2021/06/28 15:03:07;;;;;;;5.53;3.33;;;;;;;41.18;16.48;100155.56;5348320;26;20394;-86
2021/06/28 15:05:39;;;;;;;7.07;3.05;;;;;;;40.91;17.55;100158.34;5346845;26;20025;-86
2021/06/28 15:08:26;;;;;;;7.82;2.58;;;;;;;40.27;19.77;100153.41;5353241;26;20079;-87
2021/06/28 15:10:53;;;;;;;9.75;3.30;;;;;;;40.22;19.85;100153.19;5331881;26;20060;-86
2021/06/28 15:13:20;;;;;;;4.57;2.28;;;;;;;40.50;20.61;100156.59;5350132;26;20868;-85
2021/06/28 15:16:08;;;;;;;2.62;2.40;;;;;;;40.48;20.50;100152.41;5335717;26;20522;-87
2021/06/28 15:18:55;;;;;;;4.65;3.10;;;;;;;40.88;19.44;100142.22;5331204;26;20060;-87
2021/06/28 15:21:25;;;;;;;4.95;2.47;;;;;;;41.04;18.97;100141.84;5346774;26;20056;-87
2021/06/28 15:23:53;;;;;;;3.65;2.78;;;;;;;41.11;19.36;100143.72;5344960;26;20056;-86
2021/06/28 15:26:40;;;;;;;6.05;2.67;;;;;;;40.92;19.04;100139.91;5327358;26;20497;-87
2021/06/28 15:29:12;;;;;;;2.90;2.55;;;;;;;41.08;18.74;100132.06;5323886;26;20064;-87
2021/06/28 15:31:39;;;;;;;4.30;2.75;;;;;;;41.25;18.91;100123.34;5323676;26;20446;-86
2021/06/28 15:34:06;;;;;;;2.97;2.50;;;;;;;40.84;20.12;100136.31;5342481;26;20913;-87
2021/06/28 15:36:35;;;;;;;2.90;2.70;;;;;;;41.06;18.75;100133.34;5343906;26;20530;-87
2021/06/28 15:39:03;;;;;;;2.90;2.60;;;;;;;41.29;18.96;100125.44;5323332;26;20492;-87
2021/06/28 15:41:32;;;;;;;4.57;2.80;;;;;;;41.40;19.64;100126.69;5342124;26;20162;-87
2021/06/28 15:43:59;;;;;;;3.70;2.92;;;;;;;41.45;19.51;100124.13;5322950;26;20568;-87
2021/06/28 15:46:26;;;;;;;3.50;2.70;;;;;;;41.61;18.60;100120.06;5340391;26;20414;-86
2021/06/28 15:48:53;;;;;;;6.22;2.85;;;;;;;41.78;18.25;100108.53;5339548;26;20437;-86
2021/06/28 15:51:21;;;;;;;5.28;2.72;;;;;;;41.76;19.02;100111.50;5341155;26;20407;-85
2021/06/28 15:53:49;;;;;;;6.75;2.55;;;;;;;41.53;17.85;100114.78;5321214;26;20066;-86
2021/06/28 15:56:22;;;;;;;4.62;2.47;;;;;;;41.56;18.03;100103.31;5321287;26;20111;-88
2021/06/28 15:58:49;;;;;;;3.53;2.62;;;;;;;41.75;17.87;100107.91;5321169;26;20080;-87
2021/06/28 16:01:43;;;;;;;4.05;2.53;;;;;;;41.47;18.31;100104.63;5322109;26;20056;-88
2021/06/28 16:04:28;;;;;;;2.97;2.60;;;;;;;41.49;18.46;100103.34;5340387;26;20106;-86
2021/06/28 16:06:55;;;;;;;3.40;2.80;;;;;;;41.43;19.26;100098.69;5341808;26;20052;-88
2021/06/28 16:09:22;;;;;;;3.30;2.50;;;;;;;41.39;19.05;100097.44;5341103;26;20064;-87
2021/06/28 16:11:49;;;;;;;2.83;2.50;;;;;;;41.25;19.94;100093.03;5341195;26;20128;-86
2021/06/28 16:14:16;;;;;;;3.67;2.50;;;;;;;41.16;19.94;100092.41;5342847;26;20085;-87
2021/06/28 16:16:43;;;;;;;3.53;3.05;;;;;;;41.12;19.85;100091.13;5343134;26;20121;-87
2021/06/28 16:19:10;;;;;;;4.62;2.80;;;;;;;40.94;20.72;100085.44;5342744;26;20761;-88
2021/06/28 16:21:37;;;;;;;9.48;3.28;;;;;;;40.91;20.39;100077.59;5322684;26;20128;-87
2021/06/28 16:24:04;;;;;;;4.20;2.75;;;;;;;40.69;20.88;100082.53;5342596;26;20115;-87
2021/06/28 16:26:32;;;;;;;3.05;2.70;;;;;;;40.78;21.05;100081.25;5322785;26;20060;-86
2021/06/28 16:28:59;;;;;;;4.57;2.95;;;;;;;40.79;20.94;100071.91;5342839;26;20065;-85
2021/06/28 16:31:26;;;;;;;3.17;2.70;;;;;;;40.56;21.40;100077.81;5342741;26;20104;-86
2021/06/28 16:34:14;;;;;;;2.92;2.55;;;;;;;40.44;20.85;100072.13;5342570;26;20049;-87
2021/06/28 16:36:41;;;;;;;3.20;2.90;;;;;;;40.39;21.94;100074.69;5342736;26;20056;-88
2021/06/28 16:39:08;;;;;;;2.47;2.17;;;;;;;40.30;21.84;100071.28;5342279;26;20079;-87
2021/06/28 16:41:54;;;;;;;3.20;2.90;;;;;;;40.19;22.01;100071.91;5342640;26;20061;-87
2021/06/28 16:44:21;;;;;;;4.05;2.50;;;;;;;40.06;22.66;100077.34;5342899;26;20107;-85
2021/06/28 16:46:49;;;;;;;4.10;2.47;;;;;;;39.97;22.20;100073.94;5342690;26;20076;-87
2021/06/28 16:49:16;;;;;;;3.70;2.78;;;;;;;39.90;22.71;100076.69;5342132;26;20069;-87
2021/06/28 16:51:43;;;;;;;3.15;2.70;;;;;;;39.82;22.76;100074.13;5342320;26;20060;-85
2021/06/28 16:54:10;;;;;;;3.80;2.35;;;;;;;39.67;23.06;100068.78;5342484;26;20452;-87
2021/06/28 16:56:37;;;;;;;4.03;2.72;;;;;;;39.66;22.97;100069.00;5342609;26;20112;-87
2021/06/28 16:59:06;;;;;;;6.05;2.92;;;;;;;39.49;23.42;100065.75;5342256;26;20055;-87
2021/06/28 17:01:34;;;;;;;2.90;2.33;;;;;;;39.32;23.73;100064.41;5342566;26;20080;-88
2021/06/28 17:04:03;;;;;;;4.50;2.78;;;;;;;39.43;23.64;100061.94;5342381;26;20393;-85
2021/06/28 17:06:30;;;;;;;6.00;3.55;;;;;;;39.31;24.49;100054.47;5342594;26;20052;-87
2021/06/28 17:09:00;;;;;;;3.33;2.53;;;;;;;39.21;24.16;100052.06;5322617;26;20413;-88
2021/06/28 17:11:27;;;;;;;2.60;2.37;;;;;;;39.10;23.70;100055.41;5322892;26;20100;-83
2021/06/28 17:13:54;;;;;;;3.22;2.53;;;;;;;38.91;24.48;100049.59;5342228;26;20112;-83
2021/06/28 17:16:21;;;;;;;7.35;2.60;;;;;;;38.75;24.78;100050.72;5322626;26;20080;-88
2021/06/28 17:18:48;;;;;;;4.85;2.70;;;;;;;38.57;25.27;100051.25;5322712;26;20078;-88
2021/06/28 17:21:16;;;;;;;3.47;2.72;;;;;;;38.53;25.52;100054.56;5342142;26;20105;-88
2021/06/28 17:23:44;;;;;;;3.03;2.30;;;;;;;38.46;25.54;100049.03;5342414;26;20052;-83
2021/06/28 17:26:11;;;;;;;4.93;3.12;;;;;;;38.42;25.88;100053.25;5342557;26;20063;-84
2021/06/28 17:28:39;;;;;;;4.53;2.35;;;;;;;38.24;26.10;100050.06;5342370;26;20115;-84
2021/06/28 17:31:14;;;;;;;5.57;3.03;;;;;;;38.17;26.57;100052.78;5342261;26;20532;-88
2021/06/28 17:33:42;;;;;;;4.32;2.65;;;;;;;38.10;26.23;100049.97;5342289;26;20109;-87
2021/06/28 17:36:09;;;;;;;4.60;2.72;;;;;;;37.93;27.03;100045.75;5342266;26;20431;-84
2021/06/28 17:38:37;;;;;;;4.82;2.72;;;;;;;37.78;27.39;100053.19;5342317;26;20128;-88
2021/06/28 17:41:09;;;;;;;4.97;2.20;;;;;;;37.73;27.60;100051.03;5322312;26;20086;-85
2021/06/28 17:43:37;;;;;;;3.33;2.03;;;;;;;37.49;28.08;100050.34;5342352;26;20048;-87
2021/06/28 17:46:06;;;;;;;3.97;2.12;;;;;;;37.49;27.86;100047.59;5342035;26;20069;-88
2021/06/28 17:48:37;;;;;;;5.62;2.47;;;;;;;37.17;28.84;100048.00;5342095;26;20423;-87
2021/06/28 17:51:16;;;;;;;7.93;2.35;;;;;;;37.28;28.75;100050.25;5342287;26;20060;-88
2021/06/28 17:53:46;;;;;;;10.50;2.90;;;;;;;37.29;28.04;100041.00;5322355;26;20112;-87
2021/06/28 17:56:17;;;;;;;15.73;3.10;;;;;;;36.31;31.81;100052.97;5322434;26;20429;-87
2021/06/28 17:58:46;;;;;;;4.53;2.40;;;;;;;36.53;30.59;100045.75;5322273;26;20075;-88
2021/06/28 18:01:17;;;;;;;7.28;2.78;;;;;;;36.20;30.97;100051.50;5342351;26;20065;-88
2021/06/28 18:03:45;;;;;;;4.18;2.35;;;;;;;36.04;31.46;100048.91;5322358;26;20056;-87
2021/06/28 18:06:12;;;;;;;7.75;2.70;;;;;;;35.96;30.83;100046.22;5322363;26;20485;-87
2021/06/28 18:08:40;;;;;;;6.75;3.05;;;;;;;35.90;32.44;100043.16;5342428;26;20060;-86
2021/06/28 18:11:13;;;;;;;5.40;3.03;;;;;;;35.18;33.28;100045.25;5342120;26;20060;-87
2021/06/28 18:13:40;;;;;;;10.43;2.95;;;;;;;35.09;33.16;100041.69;5342023;26;20395;-86
2021/06/28 18:16:08;;;;;;;9.02;3.55;;;;;;;35.02;32.74;100037.94;5342215;26;20111;-87
2021/06/28 18:18:37;;;;;;;2.70;2.30;;;;;;;34.80;32.55;100031.38;5321897;26;20725;-88
2021/06/28 18:21:09;;;;;;;3.92;2.53;;;;;;;34.79;33.23;100029.66;5342049;26;20074;-86
2021/06/28 18:23:40;;;;;;;4.10;2.10;;;;;;;34.56;33.86;100034.97;5322204;26;20068;-83
2021/06/28 18:26:07;;;;;;;4.40;2.95;;;;;;;34.36;33.61;100038.06;5322688;26;20051;-87
2021/06/28 18:28:34;;;;;;;7.47;3.60;;;;;;;34.22;34.33;100027.84;5342000;26;20063;-86
2021/06/28 18:31:07;;;;;;;4.55;2.95;;;;;;;34.21;33.54;100030.72;5322421;26;20340;-88
2021/06/28 18:33:37;;;;;;;3.40;2.30;;;;;;;33.96;35.46;100033.44;5341892;26;20421;-86
2021/06/28 18:36:08;;;;;;;5.82;3.10;;;;;;;34.12;34.67;100032.59;5341582;26;20489;-83
2021/06/28 18:39:22;;;;;;;11.02;3.10;;;;;;;34.25;35.23;100035.69;5341806;26;20064;-84
2021/06/28 18:45:30;;;;;;;7.37;2.67;;;;;;;34.25;35.68;100032.09;5342308;26;20063;-88
2021/06/28 18:48:15;;;;;;;6.05;3.00;;;;;;;33.87;36.49;100034.44;5342616;26;20068;-87
2021/06/28 18:50:43;;;;;;;4.57;3.55;;;;;;;33.61;36.88;100038.13;5315464;27;20442;-87
2021/06/28 18:53:11;;;;;;;7.15;3.25;;;;;;;33.22;37.64;100044.09;5298157;27;20108;-84
2021/06/28 18:55:38;;;;;;;6.68;3.10;;;;;;;33.15;36.59;100040.34;5298289;27;20071;-88
2021/06/28 18:58:05;;;;;;;9.85;3.50;;;;;;;33.15;36.38;100028.59;5298129;27;20404;-84
2021/06/28 19:00:34;;;;;;;6.60;3.67;;;;;;;32.94;37.09;100031.69;5298579;27;20076;-87
2021/06/28 19:03:10;;;;;;;3.83;2.90;;;;;;;33.14;36.93;100033.19;5298453;27;20065;-87
2021/06/28 19:05:52;;;;;;;5.40;2.70;;;;;;;33.13;35.62;100044.25;5297816;27;20049;-88
2021/06/28 19:08:19;;;;;;;5.53;3.12;;;;;;;33.14;36.94;100043.22;5299545;27;20045;-87
2021/06/28 19:10:46;;;;;;;6.05;3.00;;;;;;;33.08;37.38;100043.87;5302294;27;20732;-88
2021/06/28 19:13:13;;;;;;;5.22;2.55;;;;;;;33.11;37.14;100049.00;5316663;27;20129;-84
2021/06/28 19:15:40;;;;;;;7.22;3.35;;;;;;;33.05;36.07;100045.03;5299327;27;20061;-84
2021/06/28 19:18:19;;;;;;;4.78;2.72;;;;;;;32.87;36.80;100042.38;5298864;27;20123;-87
2021/06/28 19:20:49;;;;;;;5.87;2.87;;;;;;;32.88;36.75;100051.38;5298453;27;20148;-88
2021/06/28 19:23:16;;;;;;;6.22;2.33;;;;;;;32.67;36.38;100049.91;5302018;27;20060;-87
2021/06/28 19:25:43;;;;;;;3.67;2.90;;;;;;;32.63;37.83;100056.69;5301548;27;20025;-87
2021/06/28 19:28:11;;;;;;;4.60;2.92;;;;;;;32.76;38.22;100062.53;5301949;27;20062;-86
2021/06/28 19:30:40;;;;;;;7.75;2.80;;;;;;;32.17;39.56;100063.25;5301904;27;20041;-87
2021/06/28 19:33:08;;;;;;;8.18;3.60;;;;;;;31.78;40.96;100067.09;5301274;27;20057;-83
2021/06/28 19:35:35;;;;;;;5.22;3.47;;;;;;;30.92;43.23;100071.97;5299382;27;20453;-85
2021/06/28 19:38:02;;;;;;;7.20;4.03;;;;;;;31.36;41.50;100073.06;5298917;27;20045;-85
2021/06/28 19:40:32;;;;;;;5.57;3.22;;;;;;;31.28;41.42;100074.81;5300377;27;20121;-83
2021/06/28 19:42:59;;;;;;;6.22;3.08;;;;;;;30.97;41.19;100075.94;5301423;27;20081;-87
2021/06/28 19:45:38;;;;;;;7.18;3.08;;;;;;;30.66;42.03;100082.56;5302444;27;20061;-88
2021/06/28 19:48:06;;;;;;;9.05;4.25;;;;;;;31.02;40.75;100085.47;5322407;27;20059;-87
2021/06/28 19:50:34;;;;;;;9.45;4.20;;;;;;;30.96;41.45;100085.06;5341595;26;20370;-85
2021/06/28 19:53:01;;;;;;;12.88;3.90;;;;;;;31.16;40.69;100085.00;5328301;27;20064;-88
2021/06/28 19:55:29;;;;;;;11.80;4.10;;;;;;;31.00;41.36;100083.78;5344123;26;20034;-88
2021/06/28 19:57:57;;;;;;;7.53;3.67;;;;;;;30.49;42.39;100079.56;5327286;27;20085;-84
2021/06/28 20:00:25;;;;;;;8.45;3.58;;;;;;;30.49;41.95;100086.84;5344360;26;20034;-85
2021/06/28 20:02:53;;;;;;;4.15;3.15;;;;;;;30.58;42.21;100074.28;5326571;27;20086;-86
2021/06/28 20:05:20;;;;;;;10.45;3.87;;;;;;;30.66;40.95;100069.00;5329196;26;20085;-85
2021/06/28 20:07:47;;;;;;;7.60;3.55;;;;;;;30.57;42.13;100075.28;5329605;27;20057;-87
2021/06/28 20:10:14;;;;;;;9.73;4.12;;;;;;;30.70;40.94;100075.81;5328901;26;20053;-86
2021/06/28 20:12:42;;;;;;;7.95;3.53;;;;;;;30.62;41.47;100073.88;5347800;26;20162;-86
2021/06/28 20:15:12;;;;;;;6.60;3.70;;;;;;;30.59;40.99;100081.41;5327772;27;20117;-86
2021/06/28 20:17:39;;;;;;;5.82;4.20;;;;;;;30.65;41.35;100072.69;5338905;26;20074;-84
2021/06/28 20:20:26;;;;;;;5.45;3.20;;;;;;;30.26;42.75;100075.47;5332402;26;20060;-86
2021/06/28 20:22:53;;;;;;;5.03;2.83;;;;;;;30.10;41.84;100074.16;5328318;26;20098;-86
2021/06/28 20:25:20;;;;;;;7.62;3.97;;;;;;;30.11;42.45;100081.28;5351185;26;20066;-86
2021/06/28 20:27:47;;;;;;;6.22;3.80;;;;;;;30.24;41.30;100082.91;5348851;26;20064;-84
2021/06/28 20:30:15;;;;;;;5.72;3.67;;;;;;;30.21;41.48;100085.84;5349057;26;20120;-86
2021/06/28 20:32:44;;;;;;;7.28;4.22;;;;;;;30.06;41.05;100088.09;5347869;26;20060;-83
2021/06/28 20:35:12;;;;;;;5.05;3.35;;;;;;;30.11;41.41;100088.53;5347020;26;20107;-86
2021/06/28 20:37:41;;;;;;;7.90;3.20;;;;;;;30.18;41.45;100091.53;5344748;26;20067;-83
2021/06/28 20:40:09;;;;;;;6.43;3.30;;;;;;;30.10;41.73;100095.81;5343834;26;20060;-85
2021/06/28 20:42:45;;;;;;;5.22;3.25;;;;;;;30.05;42.15;100094.53;5344635;26;20072;-87
2021/06/28 20:45:13;;;;;;;6.95;3.90;;;;;;;29.87;42.46;100097.94;5326410;26;20106;-86
2021/06/28 20:47:40;;;;;;;5.85;3.65;;;;;;;29.94;41.21;100098.22;5324460;26;20102;-83
2021/06/28 20:50:07;;;;;;;7.40;3.90;;;;;;;29.92;41.52;100092.13;5344172;26;20068;-83
2021/06/28 20:52:35;;;;;;;5.20;3.72;;;;;;;29.85;42.20;100094.50;5343830;26;20065;-85
2021/06/28 20:55:03;;;;;;;8.52;3.90;;;;;;;29.74;42.53;100094.66;5343694;26;20064;-87
2021/06/28 20:57:30;;;;;;;5.05;3.42;;;;;;;29.77;42.50;100091.66;5325238;26;20052;-87
2021/06/28 20:59:57;;;;;;;5.12;3.45;;;;;;;29.79;42.69;100091.50;5344306;26;20060;-87
2021/06/28 21:02:26;;;;;;;6.00;3.17;;;;;;;29.53;43.30;100092.00;5324314;26;20122;-86
2021/06/28 21:04:53;;;;;;;7.62;3.87;;;;;;;29.64;42.24;100097.31;5343925;26;20104;-85
2021/06/28 21:08:01;;;;;;;7.55;3.62;;;;;;;29.65;42.76;100095.50;5343961;26;20096;-83
2021/06/28 21:10:28;;;;;;;5.70;4.15;;;;;;;29.62;42.54;100093.03;5343628;26;20121;-87
2021/06/28 21:12:55;;;;;;;7.25;3.72;;;;;;;29.48;43.01;100096.12;5324114;26;20059;-86
2021/06/28 21:15:22;;;;;;;11.55;3.60;;;;;;;29.45;43.73;100090.97;5323472;26;20575;-83
2021/06/28 21:41:06;;;;;;;6.55;4.20;;;;;;;28.21;43.85;100103.44;5339007;26;20093;-86
2021/06/28 21:43:34;;;;;;;3.90;3.50;;;;;;;28.10;45.15;100103.47;5342253;26;20095;-87
2021/06/28 21:46:02;;;;;;;9.43;3.60;;;;;;;28.01;45.42;100106.94;5343629;26;20070;-83
2021/06/28 21:48:36;;;;;;;4.57;3.87;;;;;;;28.03;45.12;100099.56;5342854;26;20057;-85
2021/06/28 21:51:04;;;;;;;5.55;3.42;;;;;;;27.97;45.40;100100.97;5323100;26;20052;-86
2021/06/28 21:53:31;;;;;;;5.95;3.80;;;;;;;27.79;45.85;100108.72;5321848;26;20116;-86
2021/06/28 21:56:27;;;;;;;5.43;3.50;;;;;;;27.89;46.11;100116.06;5323097;26;20446;-86
2021/06/28 21:58:54;;;;;;;4.95;3.65;;;;;;;27.85;45.57;100102.84;5338472;26;20052;-84
2021/06/28 22:01:21;;;;;;;8.35;4.37;;;;;;;27.89;45.24;100107.97;5322657;26;20083;-86
2021/06/28 22:03:48;;;;;;;6.07;3.72;;;;;;;27.83;46.34;100120.12;5342700;26;20060;-85
2021/06/28 22:30:38;;;;;;;13.18;4.93;;;;;;;26.71;48.03;100105.63;5342423;26;20086;-86
2021/06/28 22:33:05;;;;;;;10.57;4.20;;;;;;;26.64;48.03;100098.13;5342232;26;20588;-87
2021/06/28 22:35:32;;;;;;;12.73;4.78;;;;;;;26.38;48.83;100097.41;5322656;26;20497;-86
2021/06/28 22:37:58;;;;;;;10.60;5.05;;;;;;;26.42;48.55;100097.06;5342324;26;20052;-86
2021/06/28 22:40:26;;;;;;;7.10;4.60;;;;;;;26.40;48.10;100092.75;5341057;26;20145;-87
2021/06/28 22:42:53;;;;;;;6.55;4.12;;;;;;;26.41;48.80;100098.00;5322602;26;20096;-87
2021/06/28 22:45:20;;;;;;;8.30;4.57;;;;;;;26.51;48.03;100087.44;5342170;26;20112;-83
2021/06/28 22:47:49;;;;;;;5.35;4.50;;;;;;;26.49;47.97;100094.75;5342073;26;20114;-87
2021/06/28 22:50:16;;;;;;;5.45;4.32;;;;;;;26.66;49.08;100090.78;5322448;26;20060;-84
2021/06/28 22:52:43;;;;;;;6.62;3.90;;;;;;;26.46;49.77;100090.44;5321904;26;20120;-86
2021/06/28 22:55:13;;;;;;;5.87;4.18;;;;;;;26.24;50.43;100095.78;5341984;26;20078;-86
2021/06/28 22:57:39;;;;;;;8.30;4.57;;;;;;;25.91;48.79;100088.37;5322016;26;20108;-87
